sensor_id;sensor_type;location;lat;lon;timestamp;pressure;altitude;pressure_sealevel;temperature
15607;BMP180;7865;50.918;4.510;2023-04-24T00:02:29;99614.00;;;8.90
15607;BMP180;7865;50.918;4.510;2023-04-24T00:07:31;99618.00;;;8.80
15607;BMP180;7865;50.918;4.510;2023-04-24T00:12:33;99625.00;;;8.80
15607;BMP180;7865;50.918;4.510;2023-04-24T00:17:34;99616.00;;;8.80
15607;BMP180;7865;50.918;4.510;2023-04-24T00:22:36;99611.00;;;8.80
15607;BMP180;7865;50.918;4.510;2023-04-24T00:27:37;99623.00;;;8.80
15607;BMP180;7865;50.918;4.510;2023-04-24T00:32:39;99637.00;;;8.80
15607;BMP180;7865;50.918;4.510;2023-04-24T00:37:41;99637.00;;;8.80
15607;BMP180;7865;50.918;4.510;2023-04-24T00:42:43;99630.00;;;8.70
15607;BMP180;7865;50.918;4.510;2023-04-24T00:47:46;99633.00;;;8.60
15607;BMP180;7865;50.918;4.510;2023-04-24T00:52:48;99641.00;;;8.60
15607;BMP180;7865;50.918;4.510;2023-04-24T00:57:50;99641.00;;;8.60
15607;BMP180;7865;50.918;4.510;2023-04-24T01:02:51;99637.00;;;8.60
15607;BMP180;7865;50.918;4.510;2023-04-24T01:07:54;99633.00;;;8.60
15607;BMP180;7865;50.918;4.510;2023-04-24T01:12:55;99637.00;;;8.60
15607;BMP180;7865;50.918;4.510;2023-04-24T01:17:57;99629.00;;;8.60
15607;BMP180;7865;50.918;4.510;2023-04-24T01:22:59;99633.00;;;8.60
15607;BMP180;7865;50.918;4.510;2023-04-24T01:28:01;99634.00;;;8.50
15607;BMP180;7865;50.918;4.510;2023-04-24T01:33:03;99625.00;;;8.40
15607;BMP180;7865;50.918;4.510;2023-04-24T01:38:04;99635.00;;;8.40
15607;BMP180;7865;50.918;4.510;2023-04-24T01:43:07;99627.00;;;8.40
15607;BMP180;7865;50.918;4.510;2023-04-24T01:48:08;99626.00;;;8.40
15607;BMP180;7865;50.918;4.510;2023-04-24T01:53:09;99634.00;;;8.40
15607;BMP180;7865;50.918;4.510;2023-04-24T01:58:11;99637.00;;;8.40
15607;BMP180;7865;50.918;4.510;2023-04-24T02:03:12;99635.00;;;8.30
15607;BMP180;7865;50.918;4.510;2023-04-24T02:08:14;99646.00;;;8.30
15607;BMP180;7865;50.918;4.510;2023-04-24T02:13:15;99638.00;;;8.30
15607;BMP180;7865;50.918;4.510;2023-04-24T02:18:17;99647.00;;;8.20
15607;BMP180;7865;50.918;4.510;2023-04-24T02:23:19;99644.00;;;8.20
15607;BMP180;7865;50.918;4.510;2023-04-24T02:28:20;99647.00;;;8.20
15607;BMP180;7865;50.918;4.510;2023-04-24T02:33:21;99641.00;;;8.20
15607;BMP180;7865;50.918;4.510;2023-04-24T02:38:23;99641.00;;;8.20
15607;BMP180;7865;50.918;4.510;2023-04-24T02:43:24;99647.00;;;8.20
15607;BMP180;7865;50.918;4.510;2023-04-24T02:48:26;99646.00;;;8.20
15607;BMP180;7865;50.918;4.510;2023-04-24T02:53:28;99640.00;;;8.10
15607;BMP180;7865;50.918;4.510;2023-04-24T02:58:31;99643.00;;;8.10
15607;BMP180;7865;50.918;4.510;2023-04-24T03:03:32;99636.00;;;8.00
15607;BMP180;7865;50.918;4.510;2023-04-24T03:08:34;99644.00;;;8.00
15607;BMP180;7865;50.918;4.510;2023-04-24T03:13:36;99650.00;;;8.00
15607;BMP180;7865;50.918;4.510;2023-04-24T03:18:37;99645.00;;;8.00
15607;BMP180;7865;50.918;4.510;2023-04-24T03:23:40;99647.00;;;8.00
15607;BMP180;7865;50.918;4.510;2023-04-24T03:28:44;99649.00;;;8.00
15607;BMP180;7865;50.918;4.510;2023-04-24T03:33:45;99667.00;;;8.00
15607;BMP180;7865;50.918;4.510;2023-04-24T03:38:47;99670.00;;;8.00
15607;BMP180;7865;50.918;4.510;2023-04-24T03:43:59;99691.00;;;8.00
15607;BMP180;7865;50.918;4.510;2023-04-24T03:49:01;99688.00;;;8.00
15607;BMP180;7865;50.918;4.510;2023-04-24T03:54:07;99697.00;;;8.00
15607;BMP180;7865;50.918;4.510;2023-04-24T03:59:12;99700.00;;;8.00
15607;BMP180;7865;50.918;4.510;2023-04-24T04:04:17;99707.00;;;8.00
15607;BMP180;7865;50.918;4.510;2023-04-24T04:09:19;99713.00;;;8.00
15607;BMP180;7865;50.918;4.510;2023-04-24T04:14:22;99713.00;;;8.00
15607;BMP180;7865;50.918;4.510;2023-04-24T04:19:24;99716.00;;;8.00
15607;BMP180;7865;50.918;4.510;2023-04-24T04:24:27;99721.00;;;8.00
15607;BMP180;7865;50.918;4.510;2023-04-24T04:29:32;99731.00;;;8.00
15607;BMP180;7865;50.918;4.510;2023-04-24T04:34:38;99745.00;;;8.00
15607;BMP180;7865;50.918;4.510;2023-04-24T04:39:42;99756.00;;;7.90
15607;BMP180;7865;50.918;4.510;2023-04-24T04:44:50;99777.00;;;7.90
15607;BMP180;7865;50.918;4.510;2023-04-24T04:49:55;99783.00;;;7.90
15607;BMP180;7865;50.918;4.510;2023-04-24T04:55:00;99788.00;;;7.90
15607;BMP180;7865;50.918;4.510;2023-04-24T05:00:21;99808.00;;;7.80
15607;BMP180;7865;50.918;4.510;2023-04-24T05:05:26;99821.00;;;7.80
15607;BMP180;7865;50.918;4.510;2023-04-24T05:10:28;99845.00;;;7.80
15607;BMP180;7865;50.918;4.510;2023-04-24T05:15:31;99846.00;;;7.80
15607;BMP180;7865;50.918;4.510;2023-04-24T05:20:34;99845.00;;;7.80
15607;BMP180;7865;50.918;4.510;2023-04-24T05:25:36;99872.00;;;7.80
15607;BMP180;7865;50.918;4.510;2023-04-24T05:30:43;99854.00;;;7.90
15607;BMP180;7865;50.918;4.510;2023-04-24T05:35:46;99887.00;;;7.90
15607;BMP180;7865;50.918;4.510;2023-04-24T05:40:48;99894.00;;;7.80
15607;BMP180;7865;50.918;4.510;2023-04-24T05:45:49;99900.00;;;7.70
15607;BMP180;7865;50.918;4.510;2023-04-24T05:50:52;99915.00;;;7.60
15607;BMP180;7865;50.918;4.510;2023-04-24T05:55:53;99914.00;;;7.60
15607;BMP180;7865;50.918;4.510;2023-04-24T06:00:54;99924.00;;;7.60
15607;BMP180;7865;50.918;4.510;2023-04-24T06:05:56;99934.00;;;7.60
15607;BMP180;7865;50.918;4.510;2023-04-24T06:10:58;99939.00;;;7.60
15607;BMP180;7865;50.918;4.510;2023-04-24T06:15:59;99948.00;;;7.70
15607;BMP180;7865;50.918;4.510;2023-04-24T06:21:06;99948.00;;;7.70
15607;BMP180;7865;50.918;4.510;2023-04-24T06:26:08;99976.00;;;7.70
15607;BMP180;7865;50.918;4.510;2023-04-24T06:31:09;99989.00;;;7.90
15607;BMP180;7865;50.918;4.510;2023-04-24T06:36:12;99991.00;;;8.00
15607;BMP180;7865;50.918;4.510;2023-04-24T06:41:13;100012.00;;;8.00
15607;BMP180;7865;50.918;4.510;2023-04-24T06:46:15;100002.00;;;7.90
15607;BMP180;7865;50.918;4.510;2023-04-24T06:51:16;100004.00;;;8.00
15607;BMP180;7865;50.918;4.510;2023-04-24T06:56:19;100021.00;;;8.20
15607;BMP180;7865;50.918;4.510;2023-04-24T07:01:21;100030.00;;;8.30
15607;BMP180;7865;50.918;4.510;2023-04-24T07:06:22;100042.00;;;8.60
15607;BMP180;7865;50.918;4.510;2023-04-24T07:11:24;100041.00;;;8.80
15607;BMP180;7865;50.918;4.510;2023-04-24T07:16:30;100055.00;;;8.60
15607;BMP180;7865;50.918;4.510;2023-04-24T07:21:32;100058.00;;;8.40
15607;BMP180;7865;50.918;4.510;2023-04-24T07:26:33;100067.00;;;8.50
15607;BMP180;7865;50.918;4.510;2023-04-24T07:31:34;100087.00;;;8.70
15607;BMP180;7865;50.918;4.510;2023-04-24T07:36:36;100097.00;;;9.00
15607;BMP180;7865;50.918;4.510;2023-04-24T07:41:39;100099.00;;;8.70
15607;BMP180;7865;50.918;4.510;2023-04-24T07:46:41;100116.00;;;8.50
15607;BMP180;7865;50.918;4.510;2023-04-24T07:51:42;100121.00;;;9.00
15607;BMP180;7865;50.918;4.510;2023-04-24T07:56:54;100120.00;;;9.70
15607;BMP180;7865;50.918;4.510;2023-04-24T08:13:25;100146.00;;;9.60
15607;BMP180;7865;50.918;4.510;2023-04-24T08:18:29;100156.00;;;9.00
15607;BMP180;7865;50.918;4.510;2023-04-24T08:52:56;100193.00;;;10.90
15607;BMP180;7865;50.918;4.510;2023-04-24T08:57:59;100207.00;;;10.70
15607;BMP180;7865;50.918;4.510;2023-04-24T09:03:00;100210.00;;;10.60
15607;BMP180;7865;50.918;4.510;2023-04-24T09:08:04;100215.00;;;11.30
15607;BMP180;7865;50.918;4.510;2023-04-24T09:13:06;100215.00;;;12.20
15607;BMP180;7865;50.918;4.510;2023-04-24T09:18:10;100201.00;;;13.30
15607;BMP180;7865;50.918;4.510;2023-04-24T09:23:17;100191.00;;;14.50
15607;BMP180;7865;50.918;4.510;2023-04-24T09:28:25;100212.00;;;12.80
15607;BMP180;7865;50.918;4.510;2023-04-24T09:33:26;100224.00;;;11.10
15607;BMP180;7865;50.918;4.510;2023-04-24T09:38:36;100239.00;;;10.90
15607;BMP180;7865;50.918;4.510;2023-04-24T09:43:37;100244.00;;;12.10
15607;BMP180;7865;50.918;4.510;2023-04-24T09:48:39;100239.00;;;14.50
15607;BMP180;7865;50.918;4.510;2023-04-24T09:53:46;100217.00;;;14.30
15607;BMP180;7865;50.918;4.510;2023-04-24T09:58:52;100234.00;;;13.10
15607;BMP180;7865;50.918;4.510;2023-04-24T10:03:53;100246.00;;;12.40
15607;BMP180;7865;50.918;4.510;2023-04-24T10:08:55;100257.00;;;12.80
15607;BMP180;7865;50.918;4.510;2023-04-24T10:13:57;100272.00;;;13.80
15607;BMP180;7865;50.918;4.510;2023-04-24T10:18:59;100258.00;;;14.30
15607;BMP180;7865;50.918;4.510;2023-04-24T10:24:01;100250.00;;;14.60
15607;BMP180;7865;50.918;4.510;2023-04-24T10:29:05;100252.00;;;14.30
15607;BMP180;7865;50.918;4.510;2023-04-24T10:34:11;100270.00;;;13.60
15607;BMP180;7865;50.918;4.510;2023-04-24T10:39:13;100279.00;;;13.20
15607;BMP180;7865;50.918;4.510;2023-04-24T10:44:21;100284.00;;;13.10
15607;BMP180;7865;50.918;4.510;2023-04-24T10:49:30;100289.00;;;13.20
15607;BMP180;7865;50.918;4.510;2023-04-24T10:54:45;100285.00;;;13.70
15607;BMP180;7865;50.918;4.510;2023-04-24T10:59:51;100295.00;;;13.60
15607;BMP180;7865;50.918;4.510;2023-04-24T11:05:11;100298.00;;;13.90
15607;BMP180;7865;50.918;4.510;2023-04-24T11:10:26;100294.00;;;14.10
15607;BMP180;7865;50.918;4.510;2023-04-24T11:15:27;100287.00;;;14.20
15607;BMP180;7865;50.918;4.510;2023-04-24T11:20:30;100297.00;;;15.20
15607;BMP180;7865;50.918;4.510;2023-04-24T11:25:31;100302.00;;;15.50
15607;BMP180;7865;50.918;4.510;2023-04-24T11:30:34;100304.00;;;15.00
15607;BMP180;7865;50.918;4.510;2023-04-24T11:35:40;100303.00;;;16.30
15607;BMP180;7865;50.918;4.510;2023-04-24T11:40:41;100318.00;;;15.80
15607;BMP180;7865;50.918;4.510;2023-04-24T11:45:48;100319.00;;;14.40
15607;BMP180;7865;50.918;4.510;2023-04-24T11:50:50;100316.00;;;14.90
15607;BMP180;7865;50.918;4.510;2023-04-24T11:55:52;100326.00;;;14.70
15607;BMP180;7865;50.918;4.510;2023-04-24T12:00:57;100326.00;;;14.60
15607;BMP180;7865;50.918;4.510;2023-04-24T12:06:09;100317.00;;;16.70
15607;BMP180;7865;50.918;4.510;2023-04-24T12:11:14;100325.00;;;16.80
15607;BMP180;7865;50.918;4.510;2023-04-24T12:16:16;100326.00;;;16.90
15607;BMP180;7865;50.918;4.510;2023-04-24T12:21:22;100335.00;;;17.80
15607;BMP180;7865;50.918;4.510;2023-04-24T12:26:27;100330.00;;;16.50
15607;BMP180;7865;50.918;4.510;2023-04-24T12:31:29;100334.00;;;17.00
15607;BMP180;7865;50.918;4.510;2023-04-24T12:36:31;100335.00;;;17.70
15607;BMP180;7865;50.918;4.510;2023-04-24T12:41:33;100334.00;;;17.80
15607;BMP180;7865;50.918;4.510;2023-04-24T12:46:34;100316.00;;;18.40
15607;BMP180;7865;50.918;4.510;2023-04-24T12:51:36;100330.00;;;16.90
15607;BMP180;7865;50.918;4.510;2023-04-24T12:56:38;100335.00;;;15.50
15607;BMP180;7865;50.918;4.510;2023-04-24T13:01:41;100337.00;;;14.30
15607;BMP180;7865;50.918;4.510;2023-04-24T13:06:42;100335.00;;;14.80
15607;BMP180;7865;50.918;4.510;2023-04-24T13:11:43;100339.00;;;14.30
15607;BMP180;7865;50.918;4.510;2023-04-24T13:16:45;100326.00;;;15.90
15607;BMP180;7865;50.918;4.510;2023-04-24T13:21:46;100319.00;;;16.50
15607;BMP180;7865;50.918;4.510;2023-04-24T13:26:48;100322.00;;;18.20
15607;BMP180;7865;50.918;4.510;2023-04-24T13:31:50;100321.00;;;18.40
15607;BMP180;7865;50.918;4.510;2023-04-24T13:36:54;100338.00;;;18.00
15607;BMP180;7865;50.918;4.510;2023-04-24T13:41:56;100346.00;;;16.20
15607;BMP180;7865;50.918;4.510;2023-04-24T13:46:58;100317.00;;;16.30
15607;BMP180;7865;50.918;4.510;2023-04-24T13:52:00;100318.00;;;16.00
15607;BMP180;7865;50.918;4.510;2023-04-24T13:57:02;100331.00;;;15.80
15607;BMP180;7865;50.918;4.510;2023-04-24T14:02:05;100336.00;;;16.00
15607;BMP180;7865;50.918;4.510;2023-04-24T14:07:08;100330.00;;;15.90
15607;BMP180;7865;50.918;4.510;2023-04-24T14:12:10;100336.00;;;16.40
15607;BMP180;7865;50.918;4.510;2023-04-24T14:17:11;100339.00;;;15.30
15607;BMP180;7865;50.918;4.510;2023-04-24T14:22:13;100334.00;;;16.20
15607;BMP180;7865;50.918;4.510;2023-04-24T14:27:14;100330.00;;;17.60
15607;BMP180;7865;50.918;4.510;2023-04-24T14:32:16;100300.00;;;18.00
15607;BMP180;7865;50.918;4.510;2023-04-24T14:37:18;100315.00;;;20.50
15607;BMP180;7865;50.918;4.510;2023-04-24T14:42:20;100353.00;;;18.40
15607;BMP180;7865;50.918;4.510;2023-04-24T14:47:21;100339.00;;;16.40
15607;BMP180;7865;50.918;4.510;2023-04-24T14:52:23;100340.00;;;14.50
15607;BMP180;7865;50.918;4.510;2023-04-24T14:57:25;100340.00;;;14.10
15607;BMP180;7865;50.918;4.510;2023-04-24T15:02:26;100322.00;;;14.10
15607;BMP180;7865;50.918;4.510;2023-04-24T15:07:29;100350.00;;;14.30
15607;BMP180;7865;50.918;4.510;2023-04-24T15:12:30;100341.00;;;14.40
15607;BMP180;7865;50.918;4.510;2023-04-24T15:17:32;100342.00;;;14.30
15607;BMP180;7865;50.918;4.510;2023-04-24T15:22:33;100345.00;;;14.80
15607;BMP180;7865;50.918;4.510;2023-04-24T15:27:42;100356.00;;;14.30
15607;BMP180;7865;50.918;4.510;2023-04-24T15:32:44;100357.00;;;14.20
15607;BMP180;7865;50.918;4.510;2023-04-24T15:37:46;100362.00;;;14.00
15607;BMP180;7865;50.918;4.510;2023-04-24T15:42:47;100365.00;;;13.70
15607;BMP180;7865;50.918;4.510;2023-04-24T15:47:50;100360.00;;;13.30
15607;BMP180;7865;50.918;4.510;2023-04-24T15:52:52;100367.00;;;13.10
15607;BMP180;7865;50.918;4.510;2023-04-24T15:57:53;100371.00;;;13.00
15607;BMP180;7865;50.918;4.510;2023-04-24T16:02:55;100370.00;;;12.90
15607;BMP180;7865;50.918;4.510;2023-04-24T16:07:56;100383.00;;;13.10
15607;BMP180;7865;50.918;4.510;2023-04-24T16:12:58;100391.00;;;13.10
15607;BMP180;7865;50.918;4.510;2023-04-24T16:18:03;100376.00;;;12.90
15607;BMP180;7865;50.918;4.510;2023-04-24T16:23:04;100392.00;;;12.70
15607;BMP180;7865;50.918;4.510;2023-04-24T16:28:05;100377.00;;;12.70
15607;BMP180;7865;50.918;4.510;2023-04-24T16:33:07;100392.00;;;13.00
15607;BMP180;7865;50.918;4.510;2023-04-24T16:38:09;100396.00;;;12.70
15607;BMP180;7865;50.918;4.510;2023-04-24T16:43:11;100396.00;;;12.40
15607;BMP180;7865;50.918;4.510;2023-04-24T16:48:12;100398.00;;;12.10
15607;BMP180;7865;50.918;4.510;2023-04-24T16:53:14;100394.00;;;12.00
15607;BMP180;7865;50.918;4.510;2023-04-24T16:58:16;100394.00;;;12.70
15607;BMP180;7865;50.918;4.510;2023-04-24T17:03:17;100394.00;;;12.90
15607;BMP180;7865;50.918;4.510;2023-04-24T17:08:19;100401.00;;;12.70
15607;BMP180;7865;50.918;4.510;2023-04-24T17:13:20;100408.00;;;12.40
15607;BMP180;7865;50.918;4.510;2023-04-24T17:18:22;100409.00;;;12.20
15607;BMP180;7865;50.918;4.510;2023-04-24T17:30:32;100419.00;;;11.20
15607;BMP180;7865;50.918;4.510;2023-04-24T17:35:34;100404.00;;;10.90
15607;BMP180;7865;50.918;4.510;2023-04-24T17:40:37;100406.00;;;10.80
15607;BMP180;7865;50.918;4.510;2023-04-24T17:45:39;100412.00;;;10.70
15607;BMP180;7865;50.918;4.510;2023-04-24T17:50:41;100418.00;;;10.60
15607;BMP180;7865;50.918;4.510;2023-04-24T17:55:42;100424.00;;;10.50
15607;BMP180;7865;50.918;4.510;2023-04-24T18:00:43;100428.00;;;10.40
15607;BMP180;7865;50.918;4.510;2023-04-24T18:05:45;100438.00;;;10.20
15607;BMP180;7865;50.918;4.510;2023-04-24T18:10:46;100436.00;;;9.90
15607;BMP180;7865;50.918;4.510;2023-04-24T18:15:48;100450.00;;;9.80
15607;BMP180;7865;50.918;4.510;2023-04-24T18:20:49;100451.00;;;9.60
15607;BMP180;7865;50.918;4.510;2023-04-24T18:25:50;100450.00;;;9.60
15607;BMP180;7865;50.918;4.510;2023-04-24T18:30:52;100453.00;;;9.50
15607;BMP180;7865;50.918;4.510;2023-04-24T18:35:54;100462.00;;;9.40
15607;BMP180;7865;50.918;4.510;2023-04-24T18:40:55;100470.00;;;9.30
15607;BMP180;7865;50.918;4.510;2023-04-24T18:45:57;100474.00;;;9.20
15607;BMP180;7865;50.918;4.510;2023-04-24T18:50:58;100477.00;;;9.10
15607;BMP180;7865;50.918;4.510;2023-04-24T18:56:00;100488.00;;;9.10
15607;BMP180;7865;50.918;4.510;2023-04-24T19:01:01;100498.00;;;9.10
15607;BMP180;7865;50.918;4.510;2023-04-24T19:06:03;100516.00;;;9.10
15607;BMP180;7865;50.918;4.510;2023-04-24T19:11:04;100512.00;;;9.10
15607;BMP180;7865;50.918;4.510;2023-04-24T19:16:06;100520.00;;;9.10
15607;BMP180;7865;50.918;4.510;2023-04-24T19:21:08;100520.00;;;9.00
15607;BMP180;7865;50.918;4.510;2023-04-24T19:26:09;100528.00;;;8.90
15607;BMP180;7865;50.918;4.510;2023-04-24T19:31:11;100527.00;;;8.90
15607;BMP180;7865;50.918;4.510;2023-04-24T19:36:14;100525.00;;;8.90
15607;BMP180;7865;50.918;4.510;2023-04-24T19:41:15;100546.00;;;8.90
15607;BMP180;7865;50.918;4.510;2023-04-24T19:46:17;100547.00;;;8.90
15607;BMP180;7865;50.918;4.510;2023-04-24T19:51:19;100554.00;;;8.80
15607;BMP180;7865;50.918;4.510;2023-04-24T19:56:20;100555.00;;;8.80
15607;BMP180;7865;50.918;4.510;2023-04-24T20:01:21;100557.00;;;8.70
15607;BMP180;7865;50.918;4.510;2023-04-24T20:06:23;100576.00;;;8.70
15607;BMP180;7865;50.918;4.510;2023-04-24T20:11:24;100577.00;;;8.70
15607;BMP180;7865;50.918;4.510;2023-04-24T20:16:26;100568.00;;;8.70
15607;BMP180;7865;50.918;4.510;2023-04-24T20:21:27;100572.00;;;8.70
15607;BMP180;7865;50.918;4.510;2023-04-24T20:26:29;100568.00;;;8.60
15607;BMP180;7865;50.918;4.510;2023-04-24T20:31:31;100565.00;;;8.60
15607;BMP180;7865;50.918;4.510;2023-04-24T20:36:33;100576.00;;;8.50
15607;BMP180;7865;50.918;4.510;2023-04-24T20:41:34;100573.00;;;8.50
15607;BMP180;7865;50.918;4.510;2023-04-24T20:46:37;100576.00;;;8.50
15607;BMP180;7865;50.918;4.510;2023-04-24T20:51:38;100576.00;;;8.40
15607;BMP180;7865;50.918;4.510;2023-04-24T20:56:40;100586.00;;;8.40
15607;BMP180;7865;50.918;4.510;2023-04-24T21:01:41;100579.00;;;8.40
15607;BMP180;7865;50.918;4.510;2023-04-24T21:06:44;100582.00;;;8.40
15607;BMP180;7865;50.918;4.510;2023-04-24T21:11:46;100581.00;;;8.40
15607;BMP180;7865;50.918;4.510;2023-04-24T21:16:47;100587.00;;;8.30
15607;BMP180;7865;50.918;4.510;2023-04-24T21:21:49;100576.00;;;8.30
15607;BMP180;7865;50.918;4.510;2023-04-24T21:26:50;100580.00;;;8.30
15607;BMP180;7865;50.918;4.510;2023-04-24T21:31:52;100570.00;;;8.20
15607;BMP180;7865;50.918;4.510;2023-04-24T21:36:53;100576.00;;;8.20
15607;BMP180;7865;50.918;4.510;2023-04-24T21:41:55;100568.00;;;8.20
15607;BMP180;7865;50.918;4.510;2023-04-24T21:46:58;100564.00;;;8.20
15607;BMP180;7865;50.918;4.510;2023-04-24T21:51:59;100567.00;;;8.10
15607;BMP180;7865;50.918;4.510;2023-04-24T21:57:01;100583.00;;;8.00
15607;BMP180;7865;50.918;4.510;2023-04-24T22:02:02;100577.00;;;8.10
15607;BMP180;7865;50.918;4.510;2023-04-24T22:07:03;100579.00;;;8.00
15607;BMP180;7865;50.918;4.510;2023-04-24T22:12:05;100591.00;;;8.00
15607;BMP180;7865;50.918;4.510;2023-04-24T22:17:06;100583.00;;;7.90
15607;BMP180;7865;50.918;4.510;2023-04-24T22:22:09;100589.00;;;7.70
15607;BMP180;7865;50.918;4.510;2023-04-24T22:27:11;100580.00;;;7.50
15607;BMP180;7865;50.918;4.510;2023-04-24T22:32:12;100592.00;;;7.40
15607;BMP180;7865;50.918;4.510;2023-04-24T22:37:13;100593.00;;;7.40
15607;BMP180;7865;50.918;4.510;2023-04-24T22:42:15;100598.00;;;7.40
15607;BMP180;7865;50.918;4.510;2023-04-24T22:47:16;100597.00;;;7.40
15607;BMP180;7865;50.918;4.510;2023-04-24T22:52:19;100589.00;;;7.40
15607;BMP180;7865;50.918;4.510;2023-04-24T22:57:21;100590.00;;;7.30
15607;BMP180;7865;50.918;4.510;2023-04-24T23:02:23;100580.00;;;7.30
15607;BMP180;7865;50.918;4.510;2023-04-24T23:07:24;100589.00;;;7.30
15607;BMP180;7865;50.918;4.510;2023-04-24T23:12:26;100593.00;;;7.30
15607;BMP180;7865;50.918;4.510;2023-04-24T23:17:27;100599.00;;;7.30
15607;BMP180;7865;50.918;4.510;2023-04-24T23:22:29;100599.00;;;7.30
15607;BMP180;7865;50.918;4.510;2023-04-24T23:27:30;100601.00;;;7.30
15607;BMP180;7865;50.918;4.510;2023-04-24T23:32:32;100606.00;;;7.30
15607;BMP180;7865;50.918;4.510;2023-04-24T23:37:34;100611.00;;;7.40
15607;BMP180;7865;50.918;4.510;2023-04-24T23:42:38;100608.00;;;7.40
15607;BMP180;7865;50.918;4.510;2023-04-24T23:47:39;100609.00;;;7.40
15607;BMP180;7865;50.918;4.510;2023-04-24T23:52:41;100603.00;;;7.40
15607;BMP180;7865;50.918;4.510;2023-04-24T23:57:42;100612.00;;;7.40
